createdAt,value
2018-05-06T00:01:43.687Z,98847.25
2018-05-06T00:04:11.152Z,98846.67
2018-05-06T00:06:38.616Z,98845.80
2018-05-06T00:09:06.092Z,98845.91
2018-05-06T00:11:33.563Z,98838.28
2018-05-06T00:14:01.064Z,98839.52
2018-05-06T00:16:28.539Z,98845.80
2018-05-06T00:18:56.027Z,98845.85
2018-05-06T00:21:23.487Z,98847.23
2018-05-06T00:23:50.951Z,98838.80
2018-05-06T00:26:18.428Z,98836.34
2018-05-06T00:28:45.894Z,98832.33
2018-05-06T00:31:13.393Z,98825.38
2018-05-06T00:33:40.924Z,98833.50
2018-05-06T00:36:08.585Z,98837.67
2018-05-06T00:38:36.068Z,98837.43
2018-05-06T00:41:03.539Z,98835.36
2018-05-06T00:43:31.016Z,98840.19
2018-05-06T00:45:58.480Z,98840.13
2018-05-06T00:48:25.946Z,98847.55
2018-05-06T00:50:53.419Z,98843.48
2018-05-06T00:53:20.888Z,98840.17
2018-05-06T00:55:48.371Z,98842.20
2018-05-06T00:58:15.835Z,98839.22
2018-05-06T01:00:43.296Z,98834.91
2018-05-06T01:03:10.776Z,98841.11
2018-05-06T01:05:38.235Z,98837.21
2018-05-06T01:08:05.716Z,98845.42
2018-05-06T01:10:33.175Z,98848.07
2018-05-06T01:13:00.653Z,98847.58
2018-05-06T01:15:28.135Z,98842.91
2018-05-06T01:17:55.590Z,98846.26
2018-05-06T01:20:23.068Z,98841.63
2018-05-06T01:22:50.540Z,98843.84
2018-05-06T01:25:18.011Z,98844.19
2018-05-06T01:27:45.569Z,98845.18
2018-05-06T01:30:13.024Z,98844.59
2018-05-06T01:32:40.520Z,98843.28
2018-05-06T01:35:07.984Z,98842.83
2018-05-06T01:37:35.453Z,98843.01
2018-05-06T01:40:02.939Z,98847.67
2018-05-06T01:42:30.404Z,98848.03
2018-05-06T01:44:57.884Z,98847.31
2018-05-06T01:47:25.340Z,98849.50
2018-05-06T01:49:52.824Z,98850.70
2018-05-06T01:52:20.301Z,98853.48
2018-05-06T01:54:47.766Z,98854.86
2018-05-06T01:57:15.259Z,98851.95
2018-05-06T01:59:42.725Z,98853.53
2018-05-06T02:02:10.209Z,98853.19
2018-05-06T02:04:37.686Z,98853.98
2018-05-06T02:07:05.179Z,98851.69
2018-05-06T02:09:32.650Z,98848.50
2018-05-06T02:12:00.216Z,98844.19
2018-05-06T02:14:27.724Z,98842.02
2018-05-06T02:16:55.195Z,98839.59
2018-05-06T02:19:22.790Z,98838.23
2018-05-06T02:21:50.254Z,98835.37
2018-05-06T02:24:17.746Z,98838.49
2018-05-06T02:26:45.221Z,98840.97
2018-05-06T02:29:12.676Z,98838.92
2018-05-06T02:31:40.157Z,98845.30
2018-05-06T02:34:07.629Z,98840.45
2018-05-06T02:36:35.087Z,98842.74
2018-05-06T02:39:02.568Z,98837.91
2018-05-06T02:41:30.032Z,98834.80
2018-05-06T02:43:57.512Z,98836.21
2018-05-06T02:46:24.974Z,98835.84
2018-05-06T02:48:52.471Z,98840.30
2018-05-06T02:51:19.924Z,98839.11
2018-05-06T02:53:47.375Z,98839.54
2018-05-06T02:56:14.844Z,98837.20
2018-05-06T02:58:42.309Z,98829.63
2018-05-06T03:01:09.789Z,98836.69
2018-05-06T03:03:37.244Z,98843.76
2018-05-06T03:06:04.703Z,98840.72
2018-05-06T03:08:32.176Z,98838.55
2018-05-06T03:10:59.636Z,98841.34
2018-05-06T03:13:27.106Z,98838.28
2018-05-06T03:15:54.562Z,98844.97
2018-05-06T03:18:22.024Z,98848.63
2018-05-06T03:20:49.504Z,98845.15
2018-05-06T03:23:16.955Z,98846.98
2018-05-06T03:25:44.429Z,98850.41
2018-05-06T03:28:11.995Z,98851.04
2018-05-06T03:30:39.451Z,98854.70
2018-05-06T03:33:07.012Z,98857.25
2018-05-06T03:35:34.468Z,98857.20
2018-05-06T03:38:01.961Z,98858.22
2018-05-06T03:40:29.414Z,98856.15
2018-05-06T03:42:56.871Z,98863.11
2018-05-06T03:45:24.340Z,98861.11
2018-05-06T03:47:52.747Z,98872.95
2018-05-06T03:50:20.224Z,98875.27
2018-05-06T03:52:47.705Z,98875.63
2018-05-06T03:55:15.368Z,98873.64
2018-05-06T03:57:54.627Z,98873.52
2018-05-06T04:00:33.838Z,98878.61
2018-05-06T04:03:01.314Z,98881.14
2018-05-06T04:05:28.776Z,98883.54
2018-05-06T04:07:56.319Z,98881.14
2018-05-06T04:10:23.771Z,98883.59
2018-05-06T04:12:51.228Z,98877.11
2018-05-06T04:15:18.700Z,98883.91
2018-05-06T04:17:46.152Z,98882.95
2018-05-06T04:20:13.637Z,98879.55
2018-05-06T04:22:41.098Z,98884.84
2018-05-06T04:25:09.152Z,98882.25
2018-05-06T04:27:37.128Z,98886.39
2018-05-06T04:30:04.617Z,98887.77
2018-05-06T04:32:32.104Z,98890.99
2018-05-06T04:34:59.555Z,98893.63
2018-05-06T04:37:27.048Z,98898.42
2018-05-06T04:39:54.519Z,98895.64
2018-05-06T04:42:21.988Z,98905.77
2018-05-06T04:44:49.456Z,98910.22
2018-05-06T04:47:16.910Z,98909.62
2018-05-06T04:49:44.379Z,98917.95
2018-05-06T04:52:11.842Z,98909.25
2018-05-06T04:54:39.304Z,98909.13
2018-05-06T04:57:06.780Z,98910.59
2018-05-06T04:59:34.236Z,98909.78
2018-05-06T05:02:01.708Z,98903.05
2018-05-06T05:04:29.176Z,98906.27
2018-05-06T05:06:56.674Z,98903.32
2018-05-06T05:09:24.140Z,98895.71
2018-05-06T05:11:51.589Z,98903.47
2018-05-06T05:14:19.065Z,98904.25
2018-05-06T05:16:46.523Z,98905.31
2018-05-06T05:19:14.012Z,98902.55
2018-05-06T05:21:41.479Z,98909.32
2018-05-06T05:24:08.927Z,98914.64
2018-05-06T05:26:36.603Z,98905.02
2018-05-06T05:29:04.348Z,98907.05
2018-05-06T05:31:31.836Z,98905.23
2018-05-06T05:33:59.291Z,98914.40
2018-05-06T05:36:26.739Z,98909.91
2018-05-06T05:38:54.214Z,98910.07
2018-05-06T05:41:21.682Z,98919.25
2018-05-06T05:43:49.158Z,98913.89
2018-05-06T05:46:16.620Z,98916.06
2018-05-06T05:48:44.072Z,98911.48
2018-05-06T05:51:11.549Z,98914.38
2018-05-06T05:53:39.008Z,98911.70
2018-05-06T05:56:06.490Z,98915.66
2018-05-06T05:58:33.962Z,98906.41
2018-05-06T06:01:01.421Z,98912.85
2018-05-06T06:03:29.435Z,98915.80
2018-05-06T06:05:56.892Z,98910.90
2018-05-06T06:08:24.385Z,98914.58
2018-05-06T06:10:51.860Z,98915.53
2018-05-06T06:13:19.328Z,98911.47
2018-05-06T06:15:46.787Z,98908.83
2018-05-06T06:18:14.239Z,98905.94
2018-05-06T06:20:41.710Z,98905.41
2018-05-06T06:23:09.171Z,98908.22
2018-05-06T06:25:36.632Z,98904.69
2018-05-06T06:28:04.244Z,98907.08
2018-05-06T06:30:31.747Z,98902.39
2018-05-06T06:32:59.216Z,98902.16
2018-05-06T06:35:26.668Z,98891.38
2018-05-06T06:37:54.141Z,98898.37
2018-05-06T06:40:21.596Z,98890.78
2018-05-06T06:42:49.083Z,98890.39
2018-05-06T06:45:16.533Z,98892.58
2018-05-06T06:47:43.995Z,98894.88
2018-05-06T06:50:11.459Z,98890.61
2018-05-06T06:52:38.924Z,98881.75
2018-05-06T06:55:06.408Z,98892.09
2018-05-06T06:57:33.872Z,98889.70
2018-05-06T07:00:01.334Z,98894.49
2018-05-06T07:02:28.811Z,98891.53
2018-05-06T07:04:56.273Z,98887.23
2018-05-06T07:07:23.761Z,98893.73
2018-05-06T07:09:51.219Z,98893.34
2018-05-06T07:12:18.684Z,98894.78
2018-05-06T07:14:46.164Z,98890.59
2018-05-06T07:17:13.634Z,98889.70
2018-05-06T07:19:41.262Z,98889.56
2018-05-06T07:22:08.719Z,98893.00
2018-05-06T07:24:36.194Z,98887.30
2018-05-06T07:27:03.663Z,98892.92
2018-05-06T07:29:31.110Z,98895.30
2018-05-06T07:31:58.576Z,98897.56
2018-05-06T07:34:26.152Z,98890.25
2018-05-06T07:36:54.981Z,98897.48
2018-05-06T07:39:22.558Z,98897.78
2018-05-06T07:41:50.038Z,98893.02
2018-05-06T07:44:17.524Z,98893.57
2018-05-06T07:46:44.983Z,98898.10
2018-05-06T07:49:12.468Z,98895.17
2018-05-06T07:51:39.928Z,98883.51
2018-05-06T07:54:07.388Z,98883.59
2018-05-06T07:56:34.860Z,98892.99
2018-05-06T07:59:02.315Z,98887.56
2018-05-06T08:01:29.796Z,98885.05
2018-05-06T08:03:57.271Z,98879.29
2018-05-06T08:06:24.741Z,98877.75
2018-05-06T08:08:52.212Z,98879.57
2018-05-06T08:11:19.688Z,98877.33
2018-05-06T08:13:47.166Z,98877.14
2018-05-06T08:16:14.654Z,98884.75
2018-05-06T08:18:42.115Z,98874.61
2018-05-06T08:21:09.593Z,98881.56
2018-05-06T08:23:37.049Z,98877.20
2018-05-06T08:26:04.531Z,98878.61
2018-05-06T08:28:31.994Z,98878.31
2018-05-06T08:30:59.781Z,98875.34
2018-05-06T08:33:27.251Z,98876.17
2018-05-06T08:35:54.721Z,98875.23
2018-05-06T08:38:22.224Z,98876.93
2018-05-06T08:40:49.689Z,98873.66
2018-05-06T08:43:17.160Z,98875.66
2018-05-06T08:45:44.725Z,98875.83
2018-05-06T08:48:12.124Z,98873.52
2018-05-06T08:50:39.616Z,98863.73
2018-05-06T08:53:07.096Z,98860.36
2018-05-06T08:55:34.576Z,98861.61
2018-05-06T08:58:02.057Z,98859.96
2018-05-06T09:00:29.515Z,98860.66
2018-05-06T09:02:57.017Z,98859.55
2018-05-06T09:05:24.472Z,98856.91
2018-05-06T09:07:51.952Z,98854.08
2018-05-06T09:10:19.444Z,98841.63
2018-05-06T09:12:46.906Z,98849.02
2018-05-06T09:15:14.388Z,98847.86
2018-05-06T09:17:41.853Z,98846.12
2018-05-06T09:20:09.311Z,98842.87
2018-05-06T09:22:36.790Z,98840.89
2018-05-06T09:25:04.253Z,98841.38
2018-05-06T09:27:31.732Z,98838.77
2018-05-06T09:29:59.202Z,98833.51
2018-05-06T09:32:26.758Z,98829.09
2018-05-06T09:34:54.167Z,98832.09
2018-05-06T09:37:21.632Z,98828.00
2018-05-06T09:39:49.107Z,98825.78
2018-05-06T09:42:16.589Z,98825.77
2018-05-06T09:44:44.066Z,98821.61
2018-05-06T09:47:11.517Z,98823.85
2018-05-06T09:49:39.031Z,98813.92
2018-05-06T09:52:06.493Z,98812.41
2018-05-06T09:54:33.957Z,98809.12
2018-05-06T09:57:01.441Z,98806.84
2018-05-06T09:59:28.906Z,98809.72
2018-05-06T10:01:56.381Z,98800.09
2018-05-06T10:04:23.850Z,98789.06
2018-05-06T10:06:51.410Z,98808.97
2018-05-06T10:09:18.882Z,98804.66
2018-05-06T10:11:46.341Z,98803.01
2018-05-06T10:14:13.812Z,98807.03
2018-05-06T10:16:41.271Z,98801.44
2018-05-06T10:19:08.740Z,98802.55
2018-05-06T10:21:36.201Z,98798.48
2018-05-06T10:24:03.648Z,98805.72
2018-05-06T10:26:31.124Z,98796.19
2018-05-06T10:28:58.585Z,98793.44
2018-05-06T10:31:26.270Z,98790.46
2018-05-06T10:33:53.727Z,98790.42
2018-05-06T10:36:21.405Z,98788.71
2018-05-06T10:38:48.875Z,98782.61
2018-05-06T10:41:16.372Z,98782.09
2018-05-06T10:43:43.874Z,98779.00
2018-05-06T10:46:11.332Z,98768.14
2018-05-06T10:48:39.020Z,98779.14
2018-05-06T10:51:07.410Z,98768.42
2018-05-06T10:53:34.880Z,98773.69
2018-05-06T10:56:02.347Z,98767.69
2018-05-06T10:58:29.815Z,98762.78
2018-05-06T11:00:57.538Z,98769.19
2018-05-06T11:03:25.009Z,98759.66
2018-05-06T11:05:52.488Z,98757.95
2018-05-06T11:08:19.980Z,98764.72
2018-05-06T11:10:47.462Z,98758.07
2018-05-06T11:13:14.954Z,98750.30
2018-05-06T11:15:42.416Z,98748.82
2018-05-06T11:18:09.877Z,98739.02
2018-05-06T11:20:37.350Z,98739.53
2018-05-06T11:23:04.815Z,98741.68
2018-05-06T11:25:32.300Z,98739.38
2018-05-06T11:27:59.765Z,98731.20
2018-05-06T11:30:27.231Z,98731.52
2018-05-06T11:32:54.705Z,98726.60
2018-05-06T11:35:22.169Z,98727.09
2018-05-06T11:37:49.670Z,98721.91
2018-05-06T11:40:17.136Z,98723.02
2018-05-06T11:42:44.594Z,98719.82
2018-05-06T11:45:12.063Z,98712.80
2018-05-06T11:47:39.547Z,98709.24
2018-05-06T11:50:07.040Z,98709.45
2018-05-06T11:52:34.510Z,98712.37
2018-05-06T11:55:01.963Z,98712.46
2018-05-06T11:57:29.456Z,98711.06
2018-05-06T11:59:58.059Z,98709.97
2018-05-06T12:02:25.563Z,98706.50
2018-05-06T12:04:53.028Z,98703.75
2018-05-06T12:07:20.486Z,98707.57
2018-05-06T12:09:47.984Z,98702.55
2018-05-06T12:12:15.462Z,98693.17
2018-05-06T12:14:43.142Z,98696.84
2018-05-06T12:17:10.642Z,98695.95
2018-05-06T12:19:38.113Z,98691.97
2018-05-06T12:22:07.097Z,98693.33
2018-05-06T12:24:34.920Z,98696.11
2018-05-06T12:27:03.214Z,98687.95
2018-05-06T12:29:31.057Z,98690.49
2018-05-06T12:31:59.173Z,98684.41
2018-05-06T12:34:26.655Z,98686.27
2018-05-06T12:36:54.223Z,98678.94
2018-05-06T12:39:22.317Z,98678.50
2018-05-06T12:41:49.843Z,98679.16
2018-05-06T12:44:17.355Z,98674.80
2018-05-06T12:46:44.816Z,98664.01
2018-05-06T12:49:12.286Z,98665.33
2018-05-06T12:51:40.547Z,98672.66
2018-05-06T12:54:08.024Z,98661.97
2018-05-06T12:56:36.056Z,98659.98
2018-05-06T12:59:04.405Z,98658.53
2018-05-06T13:01:31.861Z,98656.41
2018-05-06T13:04:00.312Z,98659.00
2018-05-06T13:06:28.457Z,98654.99
2018-05-06T13:08:56.061Z,98646.64
2018-05-06T13:11:23.588Z,98643.00
2018-05-06T13:13:51.071Z,98649.41
2018-05-06T13:16:18.559Z,98639.87
2018-05-06T13:18:46.029Z,98635.17
2018-05-06T13:21:13.508Z,98636.92
2018-05-06T13:23:41.075Z,98627.27
2018-05-06T13:26:08.528Z,98628.61
2018-05-06T13:28:36.015Z,98628.69
2018-05-06T13:31:03.498Z,98627.19
2018-05-06T13:33:30.981Z,98628.28
2018-05-06T13:35:58.433Z,98625.46
2018-05-06T13:38:25.896Z,98623.23
2018-05-06T13:40:53.409Z,98615.55
2018-05-06T13:43:20.869Z,98610.68
2018-05-06T13:45:48.347Z,98624.53
2018-05-06T13:48:15.807Z,98613.22
2018-05-06T13:50:43.306Z,98615.34
2018-05-06T13:53:10.800Z,98609.77
2018-05-06T13:55:38.567Z,98617.55
2018-05-06T13:58:06.697Z,98601.44
2018-05-06T14:00:34.151Z,98597.87
2018-05-06T14:03:01.607Z,98597.45
2018-05-06T14:05:29.086Z,98591.52
2018-05-06T14:07:56.604Z,98589.29
2018-05-06T14:10:24.106Z,98596.13
2018-05-06T14:12:51.573Z,98586.48
2018-05-06T14:15:19.035Z,98588.67
2018-05-06T14:17:46.509Z,98576.91
2018-05-06T14:20:13.964Z,98578.45
2018-05-06T14:22:41.584Z,98575.81
2018-05-06T14:25:09.042Z,98577.92
2018-05-06T14:27:36.521Z,98571.09
2018-05-06T14:30:04.026Z,98572.73
2018-05-06T14:32:31.463Z,98562.76
2018-05-06T14:34:58.946Z,98561.04
2018-05-06T14:37:26.400Z,98561.30
2018-05-06T14:39:53.883Z,98560.88
2018-05-06T14:42:21.348Z,98557.34
2018-05-06T14:44:48.835Z,98564.30
2018-05-06T14:50:22.234Z,98552.23
2018-05-06T14:52:49.867Z,98557.09
2018-05-06T14:55:17.315Z,98551.29
2018-05-06T14:57:44.780Z,98548.48
2018-05-06T15:00:12.250Z,98543.43
2018-05-06T15:02:39.759Z,98542.26
2018-05-06T15:05:07.223Z,98546.92
2018-05-06T15:07:34.684Z,98539.08
2018-05-06T15:10:02.164Z,98544.00
2018-05-06T15:12:29.632Z,98542.58
2018-05-06T15:14:57.245Z,98539.03
2018-05-06T15:17:24.715Z,98538.21
2018-05-06T15:19:52.170Z,98536.13
2018-05-06T15:22:19.648Z,98538.36
2018-05-06T15:24:47.094Z,98544.39
2018-05-06T15:27:14.565Z,98544.13
2018-05-06T15:29:42.018Z,98538.02
2018-05-06T15:32:09.823Z,98543.34
2018-05-06T15:34:37.307Z,98535.07
2018-05-06T15:37:04.758Z,98536.00
2018-05-06T15:39:32.234Z,98534.65
2018-05-06T15:41:59.693Z,98529.58
2018-05-06T15:44:27.159Z,98524.12
2018-05-06T15:46:54.624Z,98525.83
2018-05-06T15:49:22.081Z,98524.07
2018-05-06T15:51:50.036Z,98522.65
2018-05-06T15:54:17.511Z,98523.41
2018-05-06T15:56:44.967Z,98523.77
2018-05-06T15:59:12.560Z,98520.22
2018-05-06T16:01:40.019Z,98520.03
2018-05-06T16:04:14.125Z,98517.73
2018-05-06T16:06:41.650Z,98524.48
2018-05-06T16:09:09.112Z,98523.84
2018-05-06T16:11:36.581Z,98523.16
2018-05-06T16:14:04.085Z,98524.95
2018-05-06T16:16:31.569Z,98514.95
2018-05-06T16:18:59.033Z,98522.72
2018-05-06T16:21:26.511Z,98514.23
2018-05-06T16:23:53.980Z,98519.01
2018-05-06T16:26:21.471Z,98514.16
2018-05-06T16:28:48.943Z,98510.41
2018-05-06T16:31:16.412Z,98512.38
2018-05-06T16:33:43.876Z,98513.08
2018-05-06T16:36:11.664Z,98507.99
2018-05-06T16:38:39.144Z,98510.23
2018-05-06T16:41:06.617Z,98510.77
2018-05-06T16:43:34.100Z,98513.88
2018-05-06T16:46:01.570Z,98514.71
2018-05-06T16:48:29.041Z,98504.42
2018-05-06T16:50:56.528Z,98502.66
2018-05-06T16:53:23.991Z,98508.92
2018-05-06T16:55:51.476Z,98515.75
2018-05-06T16:58:18.936Z,98521.45
2018-05-06T17:00:46.417Z,98519.02
2018-05-06T17:03:13.891Z,98520.54
2018-05-06T17:05:41.355Z,98522.00
2018-05-06T17:08:08.837Z,98522.31
2018-05-06T17:10:36.355Z,98517.46
2018-05-06T17:13:03.883Z,98521.52
2018-05-06T17:15:31.447Z,98519.36
2018-05-06T17:17:58.904Z,98523.27
2018-05-06T17:20:26.388Z,98522.92
2018-05-06T17:22:53.843Z,98528.89
2018-05-06T17:25:21.329Z,98531.55
2018-05-06T17:27:48.801Z,98540.61
2018-05-06T17:30:16.293Z,98531.17
2018-05-06T17:32:43.770Z,98535.70
2018-05-06T17:35:11.223Z,98538.26
2018-05-06T17:37:38.713Z,98536.30
2018-05-06T17:40:06.184Z,98541.27
2018-05-06T17:42:33.686Z,98542.66
2018-05-06T17:45:01.153Z,98545.53
2018-05-06T17:47:28.945Z,98536.31
2018-05-06T17:49:56.462Z,98544.05
2018-05-06T17:52:23.887Z,98542.52
2018-05-06T17:54:51.376Z,98544.34
2018-05-06T17:57:18.837Z,98541.84
2018-05-06T17:59:46.307Z,98539.69
2018-05-06T18:02:13.766Z,98539.73
2018-05-06T18:04:41.239Z,98548.84
2018-05-06T18:07:08.703Z,98549.12
2018-05-06T18:09:36.156Z,98554.15
2018-05-06T18:12:04.003Z,98558.78
2018-05-06T18:14:31.468Z,98558.24
2018-05-06T18:16:59.136Z,98563.55
2018-05-06T18:19:26.619Z,98560.63
2018-05-06T18:21:54.084Z,98557.70
2018-05-06T18:24:21.822Z,98552.19
2018-05-06T18:26:49.585Z,98555.72
2018-05-06T18:29:17.080Z,98568.73
2018-05-06T18:31:44.584Z,98574.70
2018-05-06T18:34:12.280Z,98567.80
2018-05-06T18:36:40.560Z,98573.78
2018-05-06T18:39:08.016Z,98581.95
2018-05-06T18:41:35.476Z,98578.33
2018-05-06T18:44:02.944Z,98581.09
2018-05-06T18:46:31.011Z,98586.22
2018-05-06T18:48:58.502Z,98596.63
2018-05-06T18:51:25.959Z,98599.16
2018-05-06T18:53:53.432Z,98599.86
2018-05-06T18:56:21.474Z,98600.53
2018-05-06T18:58:48.925Z,98610.62
2018-05-06T19:01:16.408Z,98607.59
2018-05-06T19:03:43.859Z,98607.74
2018-05-06T19:06:11.763Z,98603.06
2018-05-06T19:08:39.240Z,98606.72
2018-05-06T19:11:06.695Z,98606.61
2018-05-06T19:13:34.170Z,98609.39
2018-05-06T19:16:01.893Z,98607.44
2018-05-06T19:18:29.360Z,98613.39
2018-05-06T19:20:56.828Z,98608.89
2018-05-06T19:23:24.396Z,98613.28
2018-05-06T19:25:51.906Z,98619.09
2018-05-06T19:28:19.415Z,98625.38
2018-05-06T19:30:46.872Z,98622.19
2018-05-06T19:33:14.705Z,98618.14
2018-05-06T19:35:42.457Z,98611.06
2018-05-06T19:38:09.929Z,98616.72
2018-05-06T19:40:37.388Z,98613.95
2018-05-06T19:43:05.022Z,98614.39
2018-05-06T19:45:32.669Z,98621.67
2018-05-06T19:48:00.720Z,98623.44
2018-05-06T19:50:28.176Z,98628.53
2018-05-06T19:52:55.644Z,98631.75
2018-05-06T19:55:23.096Z,98632.69
2018-05-06T19:57:50.581Z,98635.16
2018-05-06T20:00:18.052Z,98638.09
2018-05-06T20:02:45.515Z,98638.89
2018-05-06T20:05:12.980Z,98643.51
2018-05-06T20:07:40.434Z,98644.45
2018-05-06T20:10:07.919Z,98646.72
2018-05-06T20:12:35.544Z,98647.27
2018-05-06T20:15:03.312Z,98652.04
2018-05-06T20:17:30.817Z,98654.86
2018-05-06T20:19:58.281Z,98657.85
2018-05-06T20:22:25.753Z,98658.59
2018-05-06T20:24:53.208Z,98657.85
2018-05-06T20:27:20.675Z,98669.03
2018-05-06T20:29:48.144Z,98666.30
2018-05-06T20:32:15.613Z,98674.48
2018-05-06T20:34:43.084Z,98680.03
2018-05-06T20:37:10.603Z,98676.28
2018-05-06T20:39:38.726Z,98680.53
2018-05-06T20:42:06.208Z,98677.99
2018-05-06T20:44:33.672Z,98688.16
2018-05-06T20:47:01.147Z,98700.27
2018-05-06T20:49:28.603Z,98700.77
2018-05-06T20:51:56.073Z,98705.04
2018-05-06T20:54:24.547Z,98708.09
2018-05-06T20:56:51.999Z,98714.34
2018-05-06T20:59:19.474Z,98714.07
2018-05-06T21:01:46.961Z,98717.28
2018-05-06T21:04:14.442Z,98714.69
2018-05-06T21:06:41.920Z,98717.75
2018-05-06T21:09:09.384Z,98717.27
2018-05-06T21:11:36.902Z,98720.09
2018-05-06T21:14:04.364Z,98717.86
2018-05-06T21:16:31.836Z,98720.48
2018-05-06T21:18:59.295Z,98720.28
2018-05-06T21:21:26.754Z,98717.25
2018-05-06T21:23:54.227Z,98725.13
2018-05-06T21:26:21.700Z,98719.91
2018-05-06T21:28:49.177Z,98722.45
2018-05-06T21:31:16.680Z,98718.46
2018-05-06T21:33:44.118Z,98723.58
2018-05-06T21:36:11.599Z,98720.93
2018-05-06T21:38:39.056Z,98726.14
2018-05-06T21:41:06.809Z,98720.34
2018-05-06T21:43:34.298Z,98722.16
2018-05-06T21:46:01.744Z,98726.63
2018-05-06T21:48:29.223Z,98729.48
2018-05-06T21:50:56.683Z,98730.71
2018-05-06T21:53:24.214Z,98734.91
2018-05-06T21:55:51.643Z,98719.77
2018-05-06T21:58:19.092Z,98726.83
2018-05-06T22:00:46.573Z,98721.37
2018-05-06T22:03:14.032Z,98723.75
2018-05-06T22:05:41.509Z,98724.50
2018-05-06T22:08:08.959Z,98724.96
2018-05-06T22:10:36.463Z,98724.39
2018-05-06T22:13:03.952Z,98726.14
2018-05-06T22:15:31.424Z,98725.44
2018-05-06T22:17:59.085Z,98722.47
2018-05-06T22:20:26.593Z,98728.31
2018-05-06T22:22:54.059Z,98724.38
2018-05-06T22:25:21.539Z,98721.05
2018-05-06T22:27:48.996Z,98720.66
2018-05-06T22:30:16.734Z,98725.92
2018-05-06T22:32:44.204Z,98724.80
2018-05-06T22:35:11.672Z,98728.89
2018-05-06T22:37:39.146Z,98720.82
2018-05-06T22:40:06.605Z,98719.80
2018-05-06T22:42:34.103Z,98715.82
2018-05-06T22:45:01.742Z,98714.81
2018-05-06T22:47:29.288Z,98710.83
2018-05-06T22:49:56.759Z,98714.17
2018-05-06T22:52:24.216Z,98713.06
2018-05-06T22:54:51.689Z,98712.44
2018-05-06T22:57:19.226Z,98705.19
2018-05-06T22:59:46.776Z,98704.61
2018-05-06T23:02:14.184Z,98702.45
2018-05-06T23:04:41.648Z,98695.73
2018-05-06T23:07:09.128Z,98699.03
2018-05-06T23:09:36.584Z,98699.86
2018-05-06T23:12:04.065Z,98699.91
2018-05-06T23:14:31.527Z,98698.43
2018-05-06T23:16:59.000Z,98690.95
2018-05-06T23:19:26.448Z,98694.33
2018-05-06T23:21:53.912Z,98690.49
2018-05-06T23:24:21.376Z,98694.83
2018-05-06T23:26:48.841Z,98684.89
2018-05-06T23:29:16.397Z,98686.02
2018-05-06T23:31:43.804Z,98683.88
2018-05-06T23:34:11.276Z,98681.41
2018-05-06T23:36:38.744Z,98683.14
2018-05-06T23:39:06.205Z,98678.78
2018-05-06T23:41:33.697Z,98671.88
2018-05-06T23:44:01.148Z,98669.32
2018-05-06T23:46:28.604Z,98667.85
2018-05-06T23:48:56.076Z,98668.25
2018-05-06T23:51:23.532Z,98665.55
2018-05-06T23:53:51.020Z,98672.34
2018-05-06T23:56:18.497Z,98669.98
2018-05-06T23:58:46.050Z,98672.99
